Aérodrome :
LOGIN :

S'inscrire | Disclaimer

   EN    FR    IT 

 










Légende :    VFR   VFR Marginal   IFR   IFR Intensif   IFR Très Intensif
Visi : 
Plafond : 
>= 8 km
>= 3000ft
5 à 8 km
1000 à 3000 ft
1500m à 5 km
500 à 1000 ft
800 à 1500m
200 à 500 ft
< 800m
< 200 ft
Symboles :   Orages  Brouillard  Fortes neiges  Fortes précipitations  Vent > 20 kt
SIGMETs :   Divers  Orages  Givrage  Turbulence  Onde Orograph.  Cendres Volcan.







- Altitude de l'aérodrome : 580 ft
- Voir les cartes d'approche


LFOA - Avord

DERNIER METAR :
  • 140800Z AUTO 22009KT CAVOK 06/04 Q1007 TEMPO 25015G25KT

METARs EXPIRÉS :
  • 140730Z AUTO 25012KT CAVOK 06/03 Q1007 TEMPO 25015G25KT
  • 140700Z AUTO 24011KT 9999 FEW034 OVC210 06/04 Q1008 TEMPO 25015G25KT
  • 140630Z AUTO 25008KT 9999 FEW028 OVC220 06/04 Q1008 TEMPO 25015G25KT
  • 140600Z AUTO 26007KT CAVOK 05/03 Q1008 TEMPO 25020G30KT 4000 SHRA BKN008 BKN020TCU
  • 140530Z AUTO 27013KT CAVOK 06/03 Q1008

TAF AMD TAF LFOA
Valide du 14 à 06h jusqu'au 15 à 03h UTC


140604Z 1406/1503 27010KT CAVOK
TEMPO 1406/1412 25015G25KT
TEMPO 1412/1420 27025G45KT 4000 SHRA SCT008 BKN015TCU
PROB40
TEMPO 1414/1418 27030G55KT 2000 TSRA BKN008 BKN015CB
Pas de NOTAMs connus pour ce terrain.
2 SIGMETs publiés pour la FIR Paris (LFFF) :
 
Turbulence forte
LFFF SIGMET 5 VALID 140730/140900 LFPW
LFFF PARIS FIR/UIR SEV TURB OBS AT 0730Z NW OF LINE N4900 W00015 - N5100 E00230 SFC/FL060 STNR WKN=
Orages noyés dans la masse
LFFF SIGMET 4 VALID 140625/140830 LFPW
LFFF PARIS FIR/UIR EMBD TS OBS AT 0625Z WI N5000 W00015 - N5100 E00145 - N5000 E00215 - N4915 W00015 - N5000 W00015 TOP FL280 MOV E 40KT NC=



MET'MAP, la Météo Aéronautique d'un coup d'oeil ! - Copyright ORBIFLY Décembre 2007 - Disclaimer

ORBIFLY MET'MAP TEAM :

Programmation & Développement : Alexandra Zaïnal
Conception & Développement : Baudouin d'Aumeries
Co-Programmation & Développement : Marc-Olivier Méhu
Soutien technique & logistique : Manuel Goepfert

Contact : metmap@orbifly.com




SOURCES & CREDITS :

   NOAA